Webster, Iowa
Current Conditions -  °F | °C
As of 9:35 AM on Monday 22 Dec 2014 (Local Time) from KOOA Reporting Station
Light Rain Light Rain  
Wind Chill: 28°   Ceiling: 2500
Heat Index: 37°   Visibility: 3mi
Dew Point: 35°   Wind: 14mph
Humidity: 93%   Direction: 130°SE
Pressure: 29.66"   Gusts: 18mph
Location:  41.44°N, 92.17°W
Report Text: KOOA 221535Z AUTO 13012G16KT 3SM -RA BKN025 OVC030 03/02 A2966 RMK AO2 P0001 T00250015
Loading
Personal Weather Stations






























Interactive Weather Map New forecast layout! Learn more

10-Day Weather Forecast

Advertisements
Track Severe Weather on mobile